Time;durP1;ratioP1;P1;durP2;ratioP2;P2;SDS_P1;SDS_P2;PMS_P1;PMS_P2;Temp;Humidity;BMP_temperature;BMP_pressure;BME280_temperature;BME280_humidity;BME280_pressure;Samples;Min_cycle;Max_cycle;Signal;HPM_P1;HPM_P2
2022/08/12 00:43:17;;;;;;;6.00;2.27;;;;;;;;;;5024095;28;20212;-86
2022/08/12 00:46:31;;;;;;;1.97;1.80;;;;;;;;;;5012478;28;20173;-86
2022/08/12 00:49:36;;;;;;;3.87;2.10;;;;;;;;;;5035392;28;20178;-86
2022/08/12 00:52:42;;;;;;;5.37;2.17;;;;;;;;;;5023487;28;20213;-86
2022/08/12 00:55:48;;;;;;;2.50;2.30;;;;;;;;;;5012658;28;20181;-86
2022/08/12 00:58:54;;;;;;;3.10;2.10;;;;;;;;;;5035515;28;20620;-86
2022/08/12 01:02:01;;;;;;;2.57;2.07;;;;;;;;;;5012776;28;20217;-86
2022/08/12 01:11:55;;;;;;;2.43;2.10;;;;;;;;;;5023566;28;20221;-86
2022/08/12 01:15:00;;;;;;;2.97;2.23;;;;;;;;;;5012404;28;20173;-86
2022/08/12 01:18:05;;;;;;;2.77;2.20;;;;;;;;;;5012129;28;20177;-86
2022/08/12 01:21:25;;;;;;;3.50;1.90;;;;;;;;;;5011934;28;20217;-86
2022/08/12 01:24:57;;;;;;;4.90;2.10;;;;;;;;;;5011835;28;20549;-86
2022/08/12 01:28:01;;;;;;;3.03;2.33;;;;;;;;;;5023102;28;20181;-86
2022/08/12 01:31:05;;;;;;;2.67;2.20;;;;;;;;;;5011817;28;20691;-86
2022/08/12 01:34:18;;;;;;;2.53;2.33;;;;;;;;;;5023263;28;20620;-86
2022/08/12 01:37:25;;;;;;;4.67;2.43;;;;;;;;;;5011847;28;20181;-86
2022/08/12 01:40:37;;;;;;;7.53;2.50;;;;;;;;;;5034422;28;20177;-85
2022/08/12 01:43:43;;;;;;;5.10;2.30;;;;;;;;;;5011560;28;20213;-85
2022/08/12 01:47:18;;;;;;;6.10;2.13;;;;;;;;;;5013573;28;20177;-86
2022/08/12 01:50:35;;;;;;;2.87;2.30;;;;;;;;;;4991883;28;20181;-86
2022/08/12 01:53:57;;;;;;;5.37;2.27;;;;;;;;;;4981049;28;20177;-86
2022/08/12 01:57:04;;;;;;;2.47;2.13;;;;;;;;;;4981026;28;20181;-86
2022/08/12 02:00:12;;;;;;;4.20;2.13;;;;;;;;;;4991808;28;20177;-85
2022/08/12 02:03:28;;;;;;;2.87;2.20;;;;;;;;;;5014678;28;20224;-86
2022/08/12 02:11:17;;;;;;;4.50;2.40;;;;;;;;;;5002624;28;20198;-86
2022/08/12 02:14:41;;;;;;;2.90;2.20;;;;;;;;;;5014317;28;20182;-86
2022/08/12 02:18:02;;;;;;;2.87;2.30;;;;;;;;;;5002803;28;20186;-86
2022/08/12 02:21:21;;;;;;;2.63;2.13;;;;;;;;;;4991755;28;20221;-86
2022/08/12 02:24:30;;;;;;;2.07;1.87;;;;;;;;;;5002316;28;20214;-86
2022/08/12 02:27:38;;;;;;;5.03;2.13;;;;;;;;;;5002617;28;20189;-86
2022/08/12 02:30:42;;;;;;;3.13;2.53;;;;;;;;;;5002312;28;20193;-86
2022/08/12 02:33:47;;;;;;;2.23;1.97;;;;;;;;;;5033666;23;20233;-87
2022/08/12 02:36:56;;;;;;;3.77;2.30;;;;;;;;;;4992640;28;20193;-87
2022/08/12 02:40:18;;;;;;;3.87;2.47;;;;;;;;;;5004871;28;20185;-87
2022/08/12 02:43:39;;;;;;;4.33;2.20;;;;;;;;;;4985521;28;20228;-87
2022/08/12 02:46:49;;;;;;;3.93;2.33;;;;;;;;;;4999014;28;20181;-87
2022/08/12 02:49:57;;;;;;;3.17;2.40;;;;;;;;;;4987959;28;20193;-88
2022/08/12 02:53:03;;;;;;;2.60;2.40;;;;;;;;;;4987476;28;20217;-87
2022/08/12 02:56:07;;;;;;;2.60;2.30;;;;;;;;;;4987164;28;20178;-87
2022/08/12 02:59:15;;;;;;;3.93;2.30;;;;;;;;;;5008798;28;20177;-87
2022/08/12 03:02:22;;;;;;;2.80;2.10;;;;;;;;;;4988355;28;20561;-85
2022/08/12 03:05:27;;;;;;;2.70;2.30;;;;;;;;;;5010115;28;20181;-85
2022/08/12 03:08:41;;;;;;;3.87;2.20;;;;;;;;;;4987552;28;20174;-84
2022/08/12 03:11:55;;;;;;;4.03;2.30;;;;;;;;;;5030578;28;20592;-84
2022/08/12 03:15:05;;;;;;;3.33;2.70;;;;;;;;;;4997099;28;20201;-84
2022/08/12 03:18:26;;;;;;;9.97;2.47;;;;;;;;;;4996983;28;20186;-85
2022/08/12 03:21:34;;;;;;;5.47;2.50;;;;;;;;;;4996140;28;20181;-85
2022/08/12 03:24:41;;;;;;;33.63;3.93;;;;;;;;;;4995309;28;20217;-84
2022/08/12 03:27:48;;;;;;;41.97;4.40;;;;;;;;;;4995022;28;20177;-85
2022/08/12 03:31:01;;;;;;;11.20;2.77;;;;;;;;;;5005425;28;20181;-84
2022/08/12 03:34:07;;;;;;;9.87;2.50;;;;;;;;;;4993587;28;20194;-85
2022/08/12 03:37:14;;;;;;;10.07;2.50;;;;;;;;;;4992987;28;20533;-85
2022/08/12 04:00:55;;;;;;;4.03;2.13;;;;;;;;;;4985484;28;20182;-85
2022/08/12 04:04:00;;;;;;;7.57;2.50;;;;;;;;;;4974818;28;20230;-85
2022/08/12 04:07:07;;;;;;;4.00;2.30;;;;;;;;;;4997694;28;20202;-85
2022/08/12 04:10:12;;;;;;;4.97;2.53;;;;;;;;;;4972941;28;20206;-85
2022/08/12 04:13:20;;;;;;;13.90;3.20;;;;;;;;;;4991214;28;20218;-88
2022/08/12 04:16:24;;;;;;;3.90;2.53;;;;;;;;;;5001149;28;20182;-86
2022/08/12 04:19:30;;;;;;;3.43;2.53;;;;;;;;;;4998024;28;20190;-86
2022/08/12 04:22:34;;;;;;;3.37;2.33;;;;;;;;;;4997410;28;20213;-85
2022/08/12 04:25:39;;;;;;;7.77;2.93;;;;;;;;;;4997173;28;20553;-85
2022/08/12 04:28:44;;;;;;;7.67;2.77;;;;;;;;;;4986345;28;20529;-85
2022/08/12 04:31:48;;;;;;;3.13;2.43;;;;;;;;;;4997351;28;20183;-85
2022/08/12 04:34:53;;;;;;;8.37;2.80;;;;;;;;;;4986946;28;20182;-86
2022/08/12 04:37:57;;;;;;;3.57;2.70;;;;;;;;;;4986508;28;20182;-86
2022/08/12 04:41:04;;;;;;;6.27;3.40;;;;;;;;;;4986377;28;20183;-86
2022/08/12 04:44:09;;;;;;;6.57;2.50;;;;;;;;;;4997630;28;20210;-86
2022/08/12 04:47:15;;;;;;;3.83;2.70;;;;;;;;;;4986063;28;20183;-86
2022/08/12 04:50:19;;;;;;;8.47;2.77;;;;;;;;;;4999411;28;20318;-85
2022/08/12 04:53:35;;;;;;;9.27;2.73;;;;;;;;;;4996845;28;20218;-84
2022/08/12 04:56:40;;;;;;;3.63;2.60;;;;;;;;;;4996818;28;20178;-84
2022/08/12 04:59:43;;;;;;;6.57;2.90;;;;;;;;;;5007886;28;20182;-85
2022/08/12 05:02:48;;;;;;;4.10;2.27;;;;;;;;;;4985791;28;20213;-85
2022/08/12 05:05:54;;;;;;;5.90;2.50;;;;;;;;;;4996590;28;20206;-85
2022/08/12 05:08:59;;;;;;;8.13;2.60;;;;;;;;;;4985597;28;20179;-84
2022/08/12 05:12:04;;;;;;;4.30;2.87;;;;;;;;;;4996781;28;20712;-84
2022/08/12 05:15:12;;;;;;;4.80;2.37;;;;;;;;;;4985062;28;20174;-84
2022/08/12 05:18:16;;;;;;;3.90;2.30;;;;;;;;;;5002641;28;20209;-84
2022/08/12 05:21:21;;;;;;;3.93;2.60;;;;;;;;;;4996336;28;20672;-84
2022/08/12 05:24:25;;;;;;;3.27;2.70;;;;;;;;;;5007468;28;20205;-84
2022/08/12 05:27:29;;;;;;;3.63;2.37;;;;;;;;;;5005663;28;20182;-84
2022/08/12 05:30:34;;;;;;;4.93;2.60;;;;;;;;;;5005707;28;20851;-84
2022/08/12 05:33:39;;;;;;;3.67;2.97;;;;;;;;;;5010107;28;20233;-84
2022/08/12 05:36:43;;;;;;;7.77;2.83;;;;;;;;;;5014119;28;20178;-85
2022/08/12 05:39:48;;;;;;;3.90;2.83;;;;;;;;;;5004137;28;20177;-85
2022/08/12 05:42:52;;;;;;;4.20;3.10;;;;;;;;;;5003886;28;20213;-85
2022/08/12 05:45:57;;;;;;;5.77;2.70;;;;;;;;;;5002876;28;20205;-84
2022/08/12 05:49:01;;;;;;;4.80;2.73;;;;;;;;;;4992823;28;20181;-85
2022/08/12 05:52:07;;;;;;;8.00;3.27;;;;;;;;;;4991274;28;20217;-84
2022/08/12 05:55:11;;;;;;;5.03;2.63;;;;;;;;;;5014810;28;20178;-85
2022/08/12 05:58:15;;;;;;;7.10;2.90;;;;;;;;;;5002451;28;20633;-84
2022/08/12 06:01:21;;;;;;;5.13;2.50;;;;;;;;;;4984548;28;20174;-86
2022/08/12 06:04:25;;;;;;;6.67;3.33;;;;;;;;;;4983933;28;20677;-86
2022/08/12 06:07:30;;;;;;;6.90;2.63;;;;;;;;;;4984237;28;20179;-87
2022/08/12 06:10:38;;;;;;;3.67;2.57;;;;;;;;;;4972963;28;20178;-85
2022/08/12 06:13:44;;;;;;;6.67;2.87;;;;;;;;;;4994612;28;20218;-87
2022/08/12 06:16:50;;;;;;;6.73;2.93;;;;;;;;;;4994692;28;20171;-86
2022/08/12 06:19:56;;;;;;;6.80;2.77;;;;;;;;;;4972178;28;20526;-86
2022/08/12 06:23:01;;;;;;;5.63;2.80;;;;;;;;;;4983823;28;20214;-86
2022/08/12 06:26:07;;;;;;;6.33;3.20;;;;;;;;;;4994989;28;20206;-86
2022/08/12 06:29:18;;;;;;;3.10;2.80;;;;;;;;;;4972472;28;20178;-87
2022/08/12 06:32:22;;;;;;;3.90;2.33;;;;;;;;;;4971923;28;20225;-86
2022/08/12 06:35:27;;;;;;;3.60;2.50;;;;;;;;;;4994598;28;20174;-86
2022/08/12 06:38:31;;;;;;;5.23;2.80;;;;;;;;;;4994506;28;20182;-86
2022/08/12 06:44:58;;;;;;;5.93;2.13;;;;;;;;;;4995027;28;20210;-86
2022/08/12 06:48:07;;;;;;;3.20;2.20;;;;;;;;;;4972069;28;20193;-87
2022/08/12 06:51:11;;;;;;;3.70;1.90;;;;;;;;;;4984303;28;20178;-86
2022/08/12 06:54:15;;;;;;;2.70;1.70;;;;;;;;;;4994634;28;20178;-86
2022/08/12 06:57:19;;;;;;;2.67;2.00;;;;;;;;;;4983165;28;20178;-86
2022/08/12 07:00:25;;;;;;;2.47;2.00;;;;;;;;;;5006474;28;20178;-86
2022/08/12 07:03:29;;;;;;;5.40;2.30;;;;;;;;;;4994462;28;20221;-86
2022/08/12 07:06:33;;;;;;;40.23;3.27;;;;;;;;;;4983624;28;20210;-86
2022/08/12 07:09:39;;;;;;;4.10;2.17;;;;;;;;;;5006067;28;20186;-86
2022/08/12 07:12:44;;;;;;;8.83;1.90;;;;;;;;;;4995102;28;20218;-86
2022/08/12 07:15:49;;;;;;;4.07;1.87;;;;;;;;;;4994408;28;20190;-86
2022/08/12 07:18:54;;;;;;;6.00;2.00;;;;;;;;;;4994458;28;20193;-86
2022/08/12 07:22:05;;;;;;;3.07;1.70;;;;;;;;;;4995799;28;20557;-86
2022/08/12 07:28:49;;;;;;;3.87;1.87;;;;;;;;;;4990998;28;20201;-86
2022/08/12 07:31:57;;;;;;;2.47;1.47;;;;;;;;;;5002746;28;20656;-88
2022/08/12 07:35:02;;;;;;;2.63;1.93;;;;;;;;;;5002602;28;20178;-88
2022/08/12 07:38:26;;;;;;;6.00;2.10;;;;;;;;;;5014711;28;20189;-88
2022/08/12 07:41:30;;;;;;;3.60;2.13;;;;;;;;;;5002554;28;20182;-89
2022/08/12 07:44:34;;;;;;;4.53;1.77;;;;;;;;;;5025621;28;20200;-88
2022/08/12 07:47:42;;;;;;;3.47;2.03;;;;;;;;;;5006788;28;20189;-87
2022/08/12 07:50:47;;;;;;;3.37;2.03;;;;;;;;;;5006243;28;20186;-88
2022/08/12 07:53:56;;;;;;;8.63;1.87;;;;;;;;;;5006167;28;20224;-88
2022/08/12 07:57:00;;;;;;;4.73;2.83;;;;;;;;;;4994876;28;20189;-88
2022/08/12 08:00:05;;;;;;;5.03;1.90;;;;;;;;;;5017406;28;20201;-88
2022/08/12 08:03:12;;;;;;;5.07;1.87;;;;;;;;;;5028628;28;20221;-88
2022/08/12 08:06:16;;;;;;;6.47;1.97;;;;;;;;;;5016385;28;20209;-88
2022/08/12 08:09:22;;;;;;;2.33;1.60;;;;;;;;;;5006130;28;20182;-88
2022/08/12 08:15:55;;;;;;;4.43;1.93;;;;;;;;;;5006270;28;20183;-88
2022/08/12 08:18:58;;;;;;;9.27;2.10;;;;;;;;;;5017317;28;20187;-88
2022/08/12 08:22:02;;;;;;;4.50;1.70;;;;;;;;;;5017191;28;20221;-88
2022/08/12 08:25:07;;;;;;;2.87;1.77;;;;;;;;;;5006048;28;20210;-88
2022/08/12 08:28:13;;;;;;;5.30;1.60;;;;;;;;;;5006048;28;20184;-88
2022/08/12 08:31:18;;;;;;;2.37;1.80;;;;;;;;;;5005538;28;20181;-88
2022/08/12 08:34:25;;;;;;;4.27;1.60;;;;;;;;;;5063277;23;20228;-86
2022/08/12 08:37:29;;;;;;;27.13;2.83;;;;;;;;;;5036294;28;20191;-86
2022/08/12 08:43:59;;;;;;;5.03;2.00;;;;;;;;;;5056041;28;20212;-86
2022/08/12 08:47:04;;;;;;;3.78;2.05;;;;;;;;;;5043961;28;20205;-86
2022/08/12 08:50:09;;;;;;;8.30;2.10;;;;;;;;;;5044405;28;20640;-86
2022/08/12 08:53:13;;;;;;;6.40;1.98;;;;;;;;;;5055520;28;20223;-86
2022/08/12 08:56:17;;;;;;;5.57;1.98;;;;;;;;;;5043110;28;20177;-86
2022/08/12 08:59:21;;;;;;;8.27;2.00;;;;;;;;;;5044039;28;20179;-87
2022/08/12 09:02:25;;;;;;;5.57;1.60;;;;;;;;;;5044082;28;20176;-86
2022/08/12 09:05:29;;;;;;;4.13;1.70;;;;;;;;;;5055379;28;20207;-86
2022/08/12 09:08:33;;;;;;;3.95;1.75;;;;;;;;;;5032773;28;20209;-86
2022/08/12 09:15:00;;;;;;;3.17;1.85;;;;;;;;;;5050498;28;20211;-86
2022/08/12 09:18:06;;;;;;;2.50;1.48;;;;;;;;;;5055572;28;20180;-86
2022/08/12 09:21:10;;;;;;;4.72;1.60;;;;;;;;;;5043900;28;20183;-86
2022/08/12 09:24:20;;;;;;;5.00;1.63;;;;;;;;;;5042918;28;20219;-86
2022/08/12 09:27:24;;;;;;;5.78;1.30;;;;;;;;;;5054689;28;20663;-86
2022/08/12 09:30:29;;;;;;;3.38;1.40;;;;;;;;;;5043260;28;20184;-86
2022/08/12 09:33:34;;;;;;;2.95;1.30;;;;;;;;;;5043251;28;20230;-86
2022/08/12 09:36:40;;;;;;;2.40;1.73;;;;;;;;;;5043143;28;20187;-86
2022/08/12 09:39:44;;;;;;;40.70;2.90;;;;;;;;;;5032017;28;20187;-85
2022/08/12 09:46:15;;;;;;;7.53;1.92;;;;;;;;;;5066231;28;20207;-86
2022/08/12 09:49:20;;;;;;;4.95;1.42;;;;;;;;;;5031385;28;20182;-86
2022/08/12 09:52:24;;;;;;;4.55;1.80;;;;;;;;;;5042809;28;20182;-86
2022/08/12 09:55:28;;;;;;;1.70;1.35;;;;;;;;;;5043106;28;20178;-86
2022/08/12 09:58:33;;;;;;;6.72;2.03;;;;;;;;;;5042994;28;20185;-86
2022/08/12 10:01:39;;;;;;;5.88;1.80;;;;;;;;;;5043235;28;20509;-86
2022/08/12 10:04:45;;;;;;;4.03;1.70;;;;;;;;;;5054191;28;20213;-86
2022/08/12 10:07:49;;;;;;;4.32;1.52;;;;;;;;;;5042060;28;20682;-86
2022/08/12 10:14:15;;;;;;;2.95;1.45;;;;;;;;;;5042879;28;20219;-86
2022/08/12 10:17:20;;;;;;;6.90;1.77;;;;;;;;;;5053743;28;20182;-87
2022/08/12 10:20:24;;;;;;;5.95;1.50;;;;;;;;;;5031153;28;20179;-85
2022/08/12 10:23:28;;;;;;;6.60;1.70;;;;;;;;;;5030949;28;20221;-86
2022/08/12 10:29:56;;;;;;;5.43;1.48;;;;;;;;;;5055060;28;20180;-87
2022/08/12 10:33:00;;;;;;;5.85;1.77;;;;;;;;;;5042345;28;20221;-87
2022/08/12 10:36:04;;;;;;;8.05;1.58;;;;;;;;;;5042497;28;20518;-88
2022/08/12 10:39:14;;;;;;;2.53;1.50;;;;;;;;;;5042506;28;20184;-87
2022/08/12 10:45:41;;;;;;;3.60;1.60;;;;;;;;;;5053041;28;20201;-87
2022/08/12 10:48:47;;;;;;;5.00;1.42;;;;;;;;;;5041974;28;20184;-87
2022/08/12 10:51:51;;;;;;;24.40;2.63;;;;;;;;;;5042342;28;20181;-87
2022/08/12 10:54:57;;;;;;;11.05;1.70;;;;;;;;;;5041996;28;20518;-86
2022/08/12 10:58:01;;;;;;;4.88;1.10;;;;;;;;;;5041702;28;20184;-86
2022/08/12 11:01:09;;;;;;;11.23;1.83;;;;;;;;;;5030429;28;20177;-86
2022/08/12 11:04:13;;;;;;;161.85;9.57;;;;;;;;;;5041562;28;20212;-86
2022/08/12 11:07:17;;;;;;;3.20;1.30;;;;;;;;;;5029981;28;20215;-86
2022/08/12 11:10:21;;;;;;;4.00;1.30;;;;;;;;;;5053144;28;20180;-86
2022/08/12 11:13:25;;;;;;;27.15;2.88;;;;;;;;;;5030235;28;20228;-86
2022/08/12 11:16:31;;;;;;;1.25;0.88;;;;;;;;;;5041484;28;20176;-86
2022/08/12 11:19:36;;;;;;;2.58;1.20;;;;;;;;;;5041266;28;20172;-86
2022/08/12 11:22:40;;;;;;;1.80;1.02;;;;;;;;;;5041573;28;20188;-86
2022/08/12 11:25:44;;;;;;;7.40;1.35;;;;;;;;;;5041212;28;20635;-86
2022/08/12 11:28:48;;;;;;;3.25;1.20;;;;;;;;;;5041471;28;20192;-86
2022/08/12 11:31:53;;;;;;;5.28;1.00;;;;;;;;;;5041380;28;20200;-86
2022/08/12 11:34:57;;;;;;;2.17;1.00;;;;;;;;;;5041787;28;20207;-86
2022/08/12 11:38:02;;;;;;;16.25;2.15;;;;;;;;;;5030445;28;20634;-86
2022/08/12 11:41:06;;;;;;;1.27;0.90;;;;;;;;;;5030492;28;20180;-86
2022/08/12 11:44:10;;;;;;;16.48;1.48;;;;;;;;;;5029851;28;20212;-86
2022/08/12 11:47:14;;;;;;;1.38;0.93;;;;;;;;;;5002800;28;20205;-86
2022/08/12 11:50:19;;;;;;;1.92;1.00;;;;;;;;;;5013225;28;20182;-86
2022/08/12 11:53:23;;;;;;;4.10;0.93;;;;;;;;;;5012820;28;20222;-86
2022/08/12 11:56:28;;;;;;;30.38;1.67;;;;;;;;;;5024816;28;20628;-86
2022/08/12 11:59:32;;;;;;;4.32;0.95;;;;;;;;;;5012633;28;20545;-86
2022/08/12 12:02:36;;;;;;;1.58;0.85;;;;;;;;;;5012934;28;20186;-86
2022/08/12 12:05:40;;;;;;;0.82;0.82;;;;;;;;;;5012843;28;20185;-86
2022/08/12 12:08:45;;;;;;;3.50;0.90;;;;;;;;;;5013285;28;20177;-87
2022/08/12 12:11:49;;;;;;;5.32;1.15;;;;;;;;;;5012747;28;20201;-87
2022/08/12 12:14:53;;;;;;;2.45;1.08;;;;;;;;;;5024442;28;20660;-87
2022/08/12 12:17:57;;;;;;;1.33;1.00;;;;;;;;;;5001808;28;20182;-86
2022/08/12 12:21:06;;;;;;;1.90;1.00;;;;;;;;;;5013104;28;20174;-86
2022/08/12 12:24:10;;;;;;;5.78;1.27;;;;;;;;;;5012637;28;20214;-86
2022/08/12 12:27:17;;;;;;;1.90;0.90;;;;;;;;;;5023836;28;20206;-86
2022/08/12 12:30:21;;;;;;;3.30;1.10;;;;;;;;;;5001613;28;20178;-86
2022/08/12 12:33:25;;;;;;;27.00;3.42;;;;;;;;;;5016101;28;20221;-86
2022/08/12 12:36:30;;;;;;;2.20;1.13;;;;;;;;;;5016068;28;20520;-88
2022/08/12 12:39:34;;;;;;;32.88;2.58;;;;;;;;;;5016367;28;20186;-87
2022/08/12 12:42:38;;;;;;;7.55;1.00;;;;;;;;;;5016290;28;20182;-87
2022/08/12 12:45:44;;;;;;;4.35;1.10;;;;;;;;;;5004034;28;20190;-86
2022/08/12 12:48:48;;;;;;;2.05;0.90;;;;;;;;;;5014730;28;20179;-86
2022/08/12 12:51:52;;;;;;;0.80;0.80;;;;;;;;;;5015574;28;20197;-86
2022/08/12 12:54:57;;;;;;;0.98;0.88;;;;;;;;;;5015530;28;20190;-87
2022/08/12 12:58:03;;;;;;;54.67;4.10;;;;;;;;;;5027088;28;20178;-87
2022/08/12 13:01:08;;;;;;;1.20;1.00;;;;;;;;;;5016001;28;20177;-87
2022/08/12 13:04:12;;;;;;;2.50;0.80;;;;;;;;;;5015844;28;20221;-86
2022/08/12 13:07:17;;;;;;;1.83;0.80;;;;;;;;;;5015103;28;20209;-86
2022/08/12 13:10:22;;;;;;;15.55;1.35;;;;;;;;;;5015780;28;20182;-87
2022/08/12 13:13:28;;;;;;;3.50;0.82;;;;;;;;;;5026800;28;20214;-86
2022/08/12 13:16:32;;;;;;;6.65;1.13;;;;;;;;;;5015441;28;20185;-86
2022/08/12 13:19:37;;;;;;;0.90;0.70;;;;;;;;;;5015147;28;20196;-86
2022/08/12 13:22:41;;;;;;;2.08;0.75;;;;;;;;;;5015468;28;20183;-86
2022/08/12 13:25:45;;;;;;;1.70;0.82;;;;;;;;;;5015185;28;20182;-86
2022/08/12 13:28:51;;;;;;;3.70;0.90;;;;;;;;;;5014980;28;20199;-86
2022/08/12 13:31:56;;;;;;;11.73;1.10;;;;;;;;;;5014877;28;20201;-86
2022/08/12 13:35:01;;;;;;;1.90;0.60;;;;;;;;;;5007597;28;20217;-86
2022/08/12 13:38:09;;;;;;;1.58;0.68;;;;;;;;;;5043440;28;20180;-86
2022/08/12 13:41:31;;;;;;;9.25;1.00;;;;;;;;;;5043390;28;20508;-86
2022/08/12 13:44:35;;;;;;;99.60;5.22;;;;;;;;;;5031733;28;20690;-86
2022/08/12 13:48:00;;;;;;;1.27;0.50;;;;;;;;;;5043027;28;20200;-86
2022/08/12 13:51:04;;;;;;;55.58;3.30;;;;;;;;;;5043267;28;20182;-86
2022/08/12 13:54:08;;;;;;;14.30;1.50;;;;;;;;;;5031425;28;20218;-86
2022/08/12 13:57:17;;;;;;;12.82;1.75;;;;;;;;;;5055114;28;20201;-86
2022/08/12 14:00:24;;;;;;;20.38;1.58;;;;;;;;;;5031569;28;20176;-86
2022/08/12 14:03:29;;;;;;;30.25;2.28;;;;;;;;;;5054510;28;20218;-86
2022/08/12 14:06:33;;;;;;;8.10;1.13;;;;;;;;;;5043244;28;20182;-86
2022/08/12 14:10:34;;;;;;;15.75;1.42;;;;;;;;;;5031259;28;20198;-86
2022/08/12 14:13:17;;;;;;;16.38;1.40;;;;;;;;;;5055172;28;20216;-86
2022/08/12 14:16:21;;;;;;;2.35;0.90;;;;;;;;;;5042948;28;20191;-86
2022/08/12 14:19:25;;;;;;;3.10;0.80;;;;;;;;;;5053892;28;20192;-86
2022/08/12 14:22:30;;;;;;;59.03;4.47;;;;;;;;;;5054080;28;20187;-86
2022/08/12 14:25:35;;;;;;;15.45;1.25;;;;;;;;;;5052807;28;20199;-86
2022/08/12 14:28:39;;;;;;;14.80;1.33;;;;;;;;;;5035563;28;20714;-86
2022/08/12 14:31:44;;;;;;;2.45;0.70;;;;;;;;;;5022696;28;20196;-86
2022/08/12 14:34:50;;;;;;;4.63;0.90;;;;;;;;;;5075599;22;20230;-86
2022/08/12 14:37:54;;;;;;;3.13;1.00;;;;;;;;;;5030878;28;20179;-86
2022/08/12 14:41:01;;;;;;;2.35;0.77;;;;;;;;;;5019702;28;20183;-86
2022/08/12 14:44:05;;;;;;;4.45;0.88;;;;;;;;;;5031330;28;20223;-86
2022/08/12 14:47:10;;;;;;;1.67;0.80;;;;;;;;;;5031729;28;20222;-86
2022/08/12 14:50:17;;;;;;;1.45;0.75;;;;;;;;;;5043660;28;20207;-87
2022/08/12 14:53:22;;;;;;;1.27;0.80;;;;;;;;;;5035589;28;20218;-85
2022/08/12 14:56:27;;;;;;;1.05;0.68;;;;;;;;;;5046259;28;20185;-84
2022/08/12 15:02:55;;;;;;;51.60;2.72;;;;;;;;;;5043520;28;20180;-85
2022/08/12 15:06:08;;;;;;;2.15;0.70;;;;;;;;;;5032134;28;20182;-85
2022/08/12 15:09:13;;;;;;;2.55;0.70;;;;;;;;;;5012016;28;20178;-85
2022/08/12 15:12:18;;;;;;;12.25;1.45;;;;;;;;;;5021401;28;20199;-84
2022/08/12 15:15:22;;;;;;;1.00;0.65;;;;;;;;;;5041921;28;20204;-84
2022/08/12 15:18:29;;;;;;;3.10;0.90;;;;;;;;;;5030501;28;20192;-84
2022/08/12 15:21:36;;;;;;;5.47;0.68;;;;;;;;;;5017406;28;20196;-85
2022/08/12 15:24:41;;;;;;;8.25;0.90;;;;;;;;;;5035355;28;20554;-85
2022/08/12 15:27:48;;;;;;;11.77;1.48;;;;;;;;;;5022819;28;20211;-85
2022/08/12 15:30:53;;;;;;;2.63;0.85;;;;;;;;;;5031890;28;20196;-85
2022/08/12 15:33:57;;;;;;;4.00;0.90;;;;;;;;;;5011422;28;20230;-85
2022/08/12 15:37:01;;;;;;;3.67;0.98;;;;;;;;;;5012062;28;20179;-85
2022/08/12 15:40:07;;;;;;;4.55;1.10;;;;;;;;;;5024123;28;20196;-86
2022/08/12 15:43:14;;;;;;;2.85;0.90;;;;;;;;;;5042273;28;20215;-86
2022/08/12 15:46:18;;;;;;;30.52;2.63;;;;;;;;;;5005928;28;20202;-86
2022/08/12 15:49:25;;;;;;;399.23;21.70;;;;;;;;;;5008829;28;20205;-86
2022/08/12 15:52:30;;;;;;;2.55;0.88;;;;;;;;;;5024542;28;20220;-88
2022/08/12 15:55:35;;;;;;;2.53;0.90;;;;;;;;;;5037365;28;20196;-85
2022/08/12 15:58:40;;;;;;;30.98;2.15;;;;;;;;;;5014077;28;20193;-85
2022/08/12 16:01:45;;;;;;;49.10;3.53;;;;;;;;;;5014153;28;20197;-86
2022/08/12 16:04:50;;;;;;;1.27;0.90;;;;;;;;;;5023837;28;20215;-85
2022/08/12 16:07:55;;;;;;;2.67;0.70;;;;;;;;;;5028085;28;20211;-86
2022/08/12 16:10:59;;;;;;;74.05;6.00;;;;;;;;;;5006325;28;20184;-85
2022/08/12 16:14:03;;;;;;;2.42;0.88;;;;;;;;;;5010350;28;20231;-85
2022/08/12 16:17:08;;;;;;;11.30;1.57;;;;;;;;;;5035277;28;20187;-85
2022/08/12 16:20:21;;;;;;;10.60;1.40;;;;;;;;;;5036608;28;20176;-85
2022/08/12 16:23:25;;;;;;;52.60;3.70;;;;;;;;;;5023962;28;20230;-86
2022/08/12 16:26:33;;;;;;;134.93;7.50;;;;;;;;;;5024312;28;20181;-86
2022/08/12 16:29:38;;;;;;;2.20;0.80;;;;;;;;;;5025913;28;20201;-85
2022/08/12 16:32:43;;;;;;;2.63;0.80;;;;;;;;;;5023913;28;20176;-85
2022/08/12 16:35:49;;;;;;;2.53;0.90;;;;;;;;;;5038831;28;20201;-86
2022/08/12 16:38:53;;;;;;;1.20;0.80;;;;;;;;;;5034456;28;20200;-86
2022/08/12 16:41:57;;;;;;;4.17;1.10;;;;;;;;;;5046748;28;20181;-86
2022/08/12 16:45:01;;;;;;;12.60;2.17;;;;;;;;;;5024503;28;20686;-86
2022/08/12 16:48:06;;;;;;;2.13;0.80;;;;;;;;;;5022869;28;20207;-86
2022/08/12 16:51:11;;;;;;;2.90;0.80;;;;;;;;;;5021767;28;20187;-86
2022/08/12 16:54:17;;;;;;;1.00;0.90;;;;;;;;;;5032823;28;20223;-85
2022/08/12 16:57:21;;;;;;;2.67;0.90;;;;;;;;;;5034704;28;20200;-86
2022/08/12 17:00:26;;;;;;;1.57;1.00;;;;;;;;;;5033718;28;20184;-86
2022/08/12 17:03:31;;;;;;;1.03;0.80;;;;;;;;;;5035105;28;20220;-85
2022/08/12 17:06:42;;;;;;;2.70;0.90;;;;;;;;;;5034480;28;20180;-86
2022/08/12 17:09:48;;;;;;;2.67;1.10;;;;;;;;;;5023222;28;20209;-86
2022/08/12 17:12:52;;;;;;;1.20;0.80;;;;;;;;;;5023029;28;20665;-85
2022/08/12 17:15:57;;;;;;;4.03;0.97;;;;;;;;;;5034231;28;20198;-85
2022/08/12 17:19:06;;;;;;;2.47;1.10;;;;;;;;;;5022181;28;20173;-86
2022/08/12 17:22:11;;;;;;;3.40;1.20;;;;;;;;;;5023065;28;20178;-86
2022/08/12 17:25:15;;;;;;;6.30;0.80;;;;;;;;;;5024005;28;20557;-85
2022/08/12 17:28:20;;;;;;;13.03;1.00;;;;;;;;;;5020936;28;20214;-85
2022/08/12 17:31:24;;;;;;;40.30;3.13;;;;;;;;;;5022545;28;20182;-85
2022/08/12 17:37:53;;;;;;;1.63;0.90;;;;;;;;;;5058053;28;20185;-85
2022/08/12 17:40:57;;;;;;;10.63;1.00;;;;;;;;;;5021401;28;20521;-85
2022/08/12 17:44:01;;;;;;;2.77;1.20;;;;;;;;;;5044027;28;20551;-84
2022/08/12 17:47:16;;;;;;;62.13;4.40;;;;;;;;;;5043333;28;20172;-85
2022/08/12 17:50:20;;;;;;;0.90;0.80;;;;;;;;;;5032410;28;20177;-84
2022/08/12 17:53:26;;;;;;;2.20;0.90;;;;;;;;;;5044762;28;20560;-85
2022/08/12 17:56:31;;;;;;;2.73;0.90;;;;;;;;;;5031512;28;20185;-84
2022/08/12 17:59:35;;;;;;;2.40;0.97;;;;;;;;;;5031376;28;20181;-85
2022/08/12 18:02:41;;;;;;;13.17;1.83;;;;;;;;;;5043195;28;20636;-84
2022/08/12 18:05:45;;;;;;;3.37;1.00;;;;;;;;;;5043084;28;20185;-84
2022/08/12 18:08:51;;;;;;;243.67;12.70;;;;;;;;;;5043609;28;20208;-85
2022/08/12 18:15:18;;;;;;;2.40;1.20;;;;;;;;;;5056041;28;20188;-84
2022/08/12 18:18:25;;;;;;;2.10;1.17;;;;;;;;;;5020884;28;20519;-84
2022/08/12 18:21:29;;;;;;;2.17;1.17;;;;;;;;;;5032218;28;20192;-84
2022/08/12 18:24:33;;;;;;;10.47;1.10;;;;;;;;;;5033009;28;20227;-84
2022/08/12 18:27:38;;;;;;;2.43;1.00;;;;;;;;;;5031529;28;20618;-84
2022/08/12 18:30:44;;;;;;;2.40;0.93;;;;;;;;;;5041203;28;20200;-84
2022/08/12 18:33:48;;;;;;;2.17;0.90;;;;;;;;;;5031010;28;20223;-84
2022/08/12 18:36:53;;;;;;;2.07;0.93;;;;;;;;;;5030901;28;20674;-84
2022/08/12 18:43:20;;;;;;;1.63;1.13;;;;;;;;;;5033451;28;20682;-84
2022/08/12 18:46:39;;;;;;;1.73;1.03;;;;;;;;;;5022560;28;20227;-83
2022/08/12 18:49:47;;;;;;;6.90;1.10;;;;;;;;;;5019812;28;20544;-84
2022/08/12 18:52:52;;;;;;;2.47;0.90;;;;;;;;;;5033314;28;20187;-84
2022/08/12 18:56:02;;;;;;;1.93;1.10;;;;;;;;;;5033030;28;20184;-85
2022/08/12 18:59:08;;;;;;;5.07;0.90;;;;;;;;;;5032103;28;20176;-84
2022/08/12 19:02:12;;;;;;;3.63;1.30;;;;;;;;;;5032771;28;20176;-84
2022/08/12 19:05:16;;;;;;;20.90;1.97;;;;;;;;;;5030836;28;20183;-84
2022/08/12 19:08:28;;;;;;;5.13;1.20;;;;;;;;;;5030050;28;20220;-84
2022/08/12 19:15:02;;;;;;;2.17;1.17;;;;;;;;;;5041570;28;20224;-84
2022/08/12 19:18:08;;;;;;;2.47;0.90;;;;;;;;;;5019430;28;20180;-84
2022/08/12 19:21:13;;;;;;;3.20;1.20;;;;;;;;;;5030013;28;20203;-84
2022/08/12 19:27:44;;;;;;;97.20;6.60;;;;;;;;;;5053951;28;20177;-85
2022/08/12 19:34:35;;;;;;;1.10;1.00;;;;;;;;;;5031319;28;20746;-84
2022/08/12 19:37:39;;;;;;;1.90;1.10;;;;;;;;;;5020404;28;20184;-84
2022/08/12 19:40:46;;;;;;;1.40;0.77;;;;;;;;;;5031773;28;20180;-84
2022/08/12 19:43:53;;;;;;;2.13;1.10;;;;;;;;;;5033865;28;20686;-84
2022/08/12 19:46:59;;;;;;;2.20;1.00;;;;;;;;;;5022734;28;20196;-84
2022/08/12 19:50:03;;;;;;;10.27;0.93;;;;;;;;;;5045192;28;20204;-84
2022/08/12 19:53:09;;;;;;;2.70;0.97;;;;;;;;;;5045603;28;20176;-84
2022/08/12 19:56:14;;;;;;;1.13;0.97;;;;;;;;;;5045105;28;20184;-84
2022/08/12 19:59:37;;;;;;;1.50;0.97;;;;;;;;;;5033668;28;20180;-84
2022/08/12 20:02:42;;;;;;;1.67;1.10;;;;;;;;;;5022528;28;20196;-84
2022/08/12 20:05:47;;;;;;;58.20;4.17;;;;;;;;;;5033162;28;20207;-84
2022/08/12 20:08:52;;;;;;;1.10;1.00;;;;;;;;;;5044599;28;20204;-84
2022/08/12 20:11:57;;;;;;;2.53;1.10;;;;;;;;;;5022449;28;20622;-84
2022/08/12 20:15:09;;;;;;;6.20;1.47;;;;;;;;;;5033474;28;20215;-84
2022/08/12 20:18:13;;;;;;;1.30;0.97;;;;;;;;;;5021738;28;20184;-84
2022/08/12 20:21:16;;;;;;;2.80;1.40;;;;;;;;;;5032646;28;20191;-84
2022/08/12 20:24:20;;;;;;;5.87;1.30;;;;;;;;;;5033269;28;20670;-84
2022/08/12 20:27:27;;;;;;;2.33;1.10;;;;;;;;;;5021973;28;20184;-84
2022/08/12 20:30:36;;;;;;;2.23;1.20;;;;;;;;;;5044262;28;20212;-84
2022/08/12 20:33:41;;;;;;;5.40;1.20;;;;;;;;;;5021266;28;20232;-84
2022/08/12 20:36:46;;;;;;;2.83;1.37;;;;;;;;;;5021536;28;20200;-84
2022/08/12 20:39:50;;;;;;;4.30;1.10;;;;;;;;;;5034454;28;20180;-84
2022/08/12 20:42:54;;;;;;;2.80;1.40;;;;;;;;;;5023519;28;20184;-84